Time;durP1;ratioP1;P1;durP2;ratioP2;P2;SDS_P1;SDS_P2;PMS_P1;PMS_P2;Temp;Humidity;BMP_temperature;BMP_pressure;BME280_temperature;BME280_humidity;BME280_pressure;Samples;Min_cycle;Max_cycle;Signal;HPM_P1;HPM_P2
2022/10/27 00:00:32;;;;;;;;;;;;;;;;;;4937576;29;19960;-93
2022/10/27 00:02:57;;;;;;;;;;;;;;;;;;4921290;29;19946;-91
2022/10/27 00:05:23;;;;;;;;;;;;;;;;;;4954709;28;20281;-91
2022/10/27 00:07:48;;;;;;;;;;;;;;;;;;4954496;28;19918;-91
2022/10/27 00:10:14;;;;;;;;;;;;;;;;;;4954477;29;20425;-91
2022/10/27 00:12:39;;;;;;;;;;;;;;;;;;4921363;29;19918;-92
2022/10/27 00:15:04;;;;;;;;;;;;;;;;;;4940101;28;19957;-92
2022/10/27 00:17:30;;;;;;;;;;;;;;;;;;4909912;29;19919;-91
2022/10/27 00:19:55;;;;;;;;;;;;;;;;;;4937480;29;19914;-90
2022/10/27 00:22:20;;;;;;;;;;;;;;;;;;4937731;29;20366;-91
2022/10/27 00:24:46;;;;;;;;;;;;;;;;;;4959081;28;19914;-91
2022/10/27 00:27:11;;;;;;;;;;;;;;;;;;4933276;29;19914;-93
2022/10/27 00:29:36;;;;;;;;;;;;;;;;;;4917107;29;19914;-92
2022/10/27 00:32:02;;;;;;;;;;;;;;;;;;4966477;28;19922;-89
2022/10/27 00:34:27;;;;;;;;;;;;;;;;;;4942548;28;19914;-92
2022/10/27 00:36:52;;;;;;;;;;;;;;;;;;4956988;28;20278;-92
2022/10/27 00:39:18;;;;;;;;;;;;;;;;;;4974094;28;20404;-91
2022/10/27 00:41:43;;;;;;;;;;;;;;;;;;4973594;28;19914;-90
2022/10/27 00:44:08;;;;;;;;;;;;;;;;;;4955808;28;19950;-91
2022/10/27 00:46:34;;;;;;;;;;;;;;;;;;4940420;28;19914;-90
2022/10/27 00:48:59;;;;;;;;;;;;;;;;;;4953945;28;19929;-90
2022/10/27 00:51:24;;;;;;;;;;;;;;;;;;4971088;28;20286;-91
2022/10/27 00:53:50;;;;;;;;;;;;;;;;;;4956058;28;19918;-92
2022/10/27 00:56:15;;;;;;;;;;;;;;;;;;4973255;28;20009;-91
2022/10/27 00:58:40;;;;;;;;;;;;;;;;;;4955986;28;20357;-92
2022/10/27 01:01:06;;;;;;;;;;;;;;;;;;4940270;28;19914;-92
2022/10/27 01:03:31;;;;;;;;;;;;;;;;;;4973200;28;20013;-92
2022/10/27 01:05:56;;;;;;;;;;;;;;;;;;4951486;28;19914;-90
2022/10/27 01:08:22;;;;;;;;;;;;;;;;;;4956106;28;19914;-91
2022/10/27 01:10:48;;;;;;;;;;;;;;;;;;4975114;28;19914;-90
2022/10/27 01:13:13;;;;;;;;;;;;;;;;;;4959655;28;20294;-91
2022/10/27 01:15:38;;;;;;;;;;;;;;;;;;4977562;28;20301;-92
2022/10/27 01:18:04;;;;;;;;;;;;;;;;;;4944178;28;19918;-91
2022/10/27 01:20:29;;;;;;;;;;;;;;;;;;4943809;28;19913;-92
2022/10/27 01:22:54;;;;;;;;;;;;;;;;;;4976791;28;19941;-92
2022/10/27 01:25:20;;;;;;;;;;;;;;;;;;4961546;28;19940;-90
2022/10/27 01:27:45;;;;;;;;;;;;;;;;;;4957535;28;19915;-91
2022/10/27 01:30:11;;;;;;;;;;;;;;;;;;4957229;28;19915;-91
2022/10/27 01:32:36;;;;;;;;;;;;;;;;;;4924180;29;20409;-91
2022/10/27 01:35:01;;;;;;;;;;;;;;;;;;4939744;29;20326;-91
2022/10/27 01:37:27;;;;;;;;;;;;;;;;;;4955652;28;19953;-91
2022/10/27 01:39:52;;;;;;;;;;;;;;;;;;4924742;28;19918;-90
2022/10/27 01:42:17;;;;;;;;;;;;;;;;;;4975771;28;20297;-91
2022/10/27 01:44:43;;;;;;;;;;;;;;;;;;4976182;28;20298;-91
2022/10/27 01:47:08;;;;;;;;;;;;;;;;;;4943185;28;19914;-90
2022/10/27 01:49:34;;;;;;;;;;;;;;;;;;4959822;28;19914;-90
2022/10/27 01:51:59;;;;;;;;;;;;;;;;;;4959486;28;20293;-90
2022/10/27 01:54:24;;;;;;;;;;;;;;;;;;4977176;28;19914;-90
2022/10/27 01:56:50;;;;;;;;;;;;;;;;;;4954204;28;20402;-90
2022/10/27 01:59:15;;;;;;;;;;;;;;;;;;4956859;28;20444;-90
2022/10/27 02:01:40;;;;;;;;;;;;;;;;;;4923586;29;19914;-90
2022/10/27 02:04:08;;;;;;;;;;;;;;;;;;4939021;29;19915;-91
2022/10/27 02:06:34;;;;;;;;;;;;;;;;;;4939487;29;19921;-90
2022/10/27 02:08:59;;;;;;;;;;;;;;;;;;4956571;28;19965;-92
2022/10/27 02:11:24;;;;;;;;;;;;;;;;;;4923918;29;19915;-90
2022/10/27 02:13:51;;;;;;;;;;;;;;;;;;4939374;28;19915;-91
2022/10/27 02:16:16;;;;;;;;;;;;;;;;;;4938961;28;19918;-90
2022/10/27 02:18:41;;;;;;;;;;;;;;;;;;4958318;28;19985;-90
2022/10/27 02:21:07;;;;;;;;;;;;;;;;;;4957967;28;20432;-91
2022/10/27 02:23:32;;;;;;;;;;;;;;;;;;4926219;28;19921;-91
2022/10/27 02:25:57;;;;;;;;;;;;;;;;;;4975915;28;20374;-91
2022/10/27 02:28:23;;;;;;;;;;;;;;;;;;4976433;28;20004;-90
2022/10/27 02:30:48;;;;;;;;;;;;;;;;;;4957839;28;19918;-90
2022/10/27 02:33:13;;;;;;;;;;;;;;;;;;4972526;28;20024;-90
2022/10/27 02:35:39;;;;;;;;;;;;;;;;;;4943529;28;19928;-90
2022/10/27 02:38:04;;;;;;;;;;;;;;;;;;4947098;28;20006;-90
2022/10/27 02:40:29;;;;;;;;;;;;;;;;;;4950875;28;20390;-90
2022/10/27 02:42:55;;;;;;;;;;;;;;;;;;4981621;28;19957;-90
2022/10/27 02:45:20;;;;;;;;;;;;;;;;;;4980176;28;19914;-89
2022/10/27 02:47:46;;;;;;;;;;;;;;;;;;4982206;28;19914;-89
2022/10/27 02:50:11;;;;;;;;;;;;;;;;;;4955854;28;20041;-92
2022/10/27 02:52:36;;;;;;;;;;;;;;;;;;4942663;28;19969;-91
2022/10/27 02:55:02;;;;;;;;;;;;;;;;;;4958208;28;19918;-90
2022/10/27 02:57:27;;;;;;;;;;;;;;;;;;4975731;28;20374;-90
2022/10/27 02:59:52;;;;;;;;;;;;;;;;;;4975957;28;20360;-90
2022/10/27 03:02:18;;;;;;;;;;;;;;;;;;4958492;28;20298;-90
2022/10/27 03:04:43;;;;;;;;;;;;;;;;;;4980158;28;19914;-90
2022/10/27 03:07:08;;;;;;;;;;;;;;;;;;4958889;28;19929;-90
2022/10/27 03:09:34;;;;;;;;;;;;;;;;;;4944982;28;20367;-89
2022/10/27 03:11:59;;;;;;;;;;;;;;;;;;4960843;28;20335;-88
2022/10/27 03:14:24;;;;;;;;;;;;;;;;;;4960518;28;19914;-88
2022/10/27 03:16:50;;;;;;;;;;;;;;;;;;4946156;28;20393;-88
2022/10/27 03:19:15;;;;;;;;;;;;;;;;;;4960510;28;20340;-91
2022/10/27 03:21:40;;;;;;;;;;;;;;;;;;4976805;28;19914;-91
2022/10/27 03:24:06;;;;;;;;;;;;;;;;;;4949312;28;20287;-90
2022/10/27 03:26:31;;;;;;;;;;;;;;;;;;4940134;29;19914;-89
2022/10/27 03:28:56;;;;;;;;;;;;;;;;;;4940510;29;20342;-89
2022/10/27 03:31:22;;;;;;;;;;;;;;;;;;4939516;29;19914;-89
2022/10/27 03:33:47;;;;;;;;;;;;;;;;;;4956588;28;19915;-91
2022/10/27 03:36:13;;;;;;;;;;;;;;;;;;4939725;29;19930;-90
2022/10/27 03:38:38;;;;;;;;;;;;;;;;;;4957496;28;19914;-88
2022/10/27 03:41:03;;;;;;;;;;;;;;;;;;4957047;28;19922;-89
2022/10/27 03:43:29;;;;;;;;;;;;;;;;;;4956533;28;19918;-90
2022/10/27 03:45:54;;;;;;;;;;;;;;;;;;4941312;28;19920;-90
2022/10/27 03:48:19;;;;;;;;;;;;;;;;;;4974488;28;20033;-90
2022/10/27 03:50:45;;;;;;;;;;;;;;;;;;4943399;28;20333;-90
2022/10/27 03:53:11;;;;;;;;;;;;;;;;;;4985627;28;19974;-90
2022/10/27 03:55:36;;;;;;;;;;;;;;;;;;4986454;28;19925;-89
2022/10/27 03:58:01;;;;;;;;;;;;;;;;;;4952346;28;19914;-90
2022/10/27 04:00:31;;;;;;;;;;;;;;;;;;4978663;28;19994;-91
2022/10/27 04:02:57;;;;;;;;;;;;;;;;;;4962406;28;19922;-91
2022/10/27 04:05:22;;;;;;;;;;;;;;;;;;4943692;28;19914;-92
2022/10/27 04:07:47;;;;;;;;;;;;;;;;;;4974721;28;19914;-91
2022/10/27 04:10:13;;;;;;;;;;;;;;;;;;4956789;28;20382;-91
2022/10/27 04:12:41;;;;;;;;;;;;;;;;;;4940728;28;20468;-90
2022/10/27 04:15:06;;;;;;;;;;;;;;;;;;4961147;28;19941;-90
2022/10/27 04:17:32;;;;;;;;;;;;;;;;;;4960015;28;19918;-91
2022/10/27 04:19:57;;;;;;;;;;;;;;;;;;4973837;28;20328;-91
2022/10/27 04:22:22;;;;;;;;;;;;;;;;;;4924112;28;20018;-91
2022/10/27 04:24:48;;;;;;;;;;;;;;;;;;4973805;28;19914;-90
2022/10/27 04:27:13;;;;;;;;;;;;;;;;;;4957194;28;19914;-89
2022/10/27 04:29:38;;;;;;;;;;;;;;;;;;4956298;28;19969;-90
2022/10/27 04:32:04;;;;;;;;;;;;;;;;;;4940505;28;19921;-91
2022/10/27 04:34:29;;;;;;;;;;;;;;;;;;4951420;28;20215;-90
2022/10/27 04:36:54;;;;;;;;;;;;;;;;;;4973059;28;20289;-89
2022/10/27 04:39:20;;;;;;;;;;;;;;;;;;4973690;28;19950;-89
2022/10/27 04:41:45;;;;;;;;;;;;;;;;;;4974026;28;19921;-90
2022/10/27 04:44:10;;;;;;;;;;;;;;;;;;4973272;28;19918;-89
2022/10/27 04:46:36;;;;;;;;;;;;;;;;;;4959558;28;19914;-90
2022/10/27 04:49:01;;;;;;;;;;;;;;;;;;4959958;28;20344;-88
2022/10/27 04:51:26;;;;;;;;;;;;;;;;;;4943730;28;19914;-88
2022/10/27 04:53:52;;;;;;;;;;;;;;;;;;4944958;29;20346;-90
2022/10/27 04:56:18;;;;;;;;;;;;;;;;;;4941739;29;19918;-91
2022/10/27 04:58:43;;;;;;;;;;;;;;;;;;4943641;29;19921;-88
2022/10/27 05:01:09;;;;;;;;;;;;;;;;;;4959432;28;19957;-90
2022/10/27 05:03:34;;;;;;;;;;;;;;;;;;4925676;29;20374;-90
2022/10/27 05:05:59;;;;;;;;;;;;;;;;;;4943635;29;19969;-87
2022/10/27 05:08:25;;;;;;;;;;;;;;;;;;4949397;29;20289;-88
2022/10/27 05:10:50;;;;;;;;;;;;;;;;;;4948418;29;19918;-89
2022/10/27 05:13:15;;;;;;;;;;;;;;;;;;4941009;29;20013;-89
2022/10/27 05:15:41;;;;;;;;;;;;;;;;;;4925097;29;19922;-90
2022/10/27 05:18:06;;;;;;;;;;;;;;;;;;4940556;29;19925;-90
2022/10/27 05:20:31;;;;;;;;;;;;;;;;;;4958127;29;19961;-90
2022/10/27 05:22:57;;;;;;;;;;;;;;;;;;4908690;29;19914;-92
2022/10/27 05:25:22;;;;;;;;;;;;;;;;;;4943789;29;19919;-90
2022/10/27 05:27:47;;;;;;;;;;;;;;;;;;4957463;28;19915;-89
2022/10/27 05:30:13;;;;;;;;;;;;;;;;;;4940468;29;20374;-90
2022/10/27 05:32:39;;;;;;;;;;;;;;;;;;4956982;29;19918;-90
2022/10/27 05:35:04;;;;;;;;;;;;;;;;;;4957345;28;19914;-90
2022/10/27 05:37:29;;;;;;;;;;;;;;;;;;4939948;29;20280;-90
2022/10/27 05:39:55;;;;;;;;;;;;;;;;;;4956928;28;19921;-91
2022/10/27 05:42:20;;;;;;;;;;;;;;;;;;4950446;28;19914;-90
2022/10/27 05:44:45;;;;;;;;;;;;;;;;;;4943900;28;19914;-90
2022/10/27 05:47:11;;;;;;;;;;;;;;;;;;4959447;28;19965;-91
2022/10/27 05:49:36;;;;;;;;;;;;;;;;;;4959206;28;19957;-90
2022/10/27 05:52:01;;;;;;;;;;;;;;;;;;4976175;28;19953;-90
2022/10/27 05:54:27;;;;;;;;;;;;;;;;;;4942982;28;20482;-90
2022/10/27 05:56:52;;;;;;;;;;;;;;;;;;4942584;28;19934;-90
2022/10/27 05:59:19;;;;;;;;;;;;;;;;;;4976320;28;19983;-91
2022/10/27 06:01:44;;;;;;;;;;;;;;;;;;4954381;28;20123;-89
2022/10/27 06:04:09;;;;;;;;;;;;;;;;;;4958626;28;20005;-90
2022/10/27 06:06:35;;;;;;;;;;;;;;;;;;4975782;28;19914;-90
2022/10/27 06:09:00;;;;;;;;;;;;;;;;;;4958828;28;19910;-91
2022/10/27 06:11:28;;;;;;;;;;;;;;;;;;4958899;28;19914;-91
2022/10/27 06:14:15;;;;;;;;;;;;;;;;;;4949023;28;19914;-92
2022/10/27 06:16:42;;;;;;;;;;;;;;;;;;4954227;28;20350;-90
2022/10/27 06:19:08;;;;;;;;;;;;;;;;;;4952174;28;19918;-91
2022/10/27 06:21:33;;;;;;;;;;;;;;;;;;4941005;29;19910;-90
2022/10/27 06:23:59;;;;;;;;;;;;;;;;;;4939288;29;20333;-91
2022/10/27 06:26:24;;;;;;;;;;;;;;;;;;4939532;29;20482;-90
2022/10/27 06:28:50;;;;;;;;;;;;;;;;;;4939625;29;20271;-90
2022/10/27 06:31:15;;;;;;;;;;;;;;;;;;4939862;29;19915;-90
2022/10/27 06:33:41;;;;;;;;;;;;;;;;;;4939743;29;20009;-90
2022/10/27 06:36:06;;;;;;;;;;;;;;;;;;4945771;28;19918;-89
2022/10/27 06:38:32;;;;;;;;;;;;;;;;;;4975358;28;19915;-90
2022/10/27 06:40:57;;;;;;;;;;;;;;;;;;4958467;28;19914;-90
2022/10/27 06:43:22;;;;;;;;;;;;;;;;;;4975535;28;20391;-91
2022/10/27 06:45:48;;;;;;;;;;;;;;;;;;4975585;28;19921;-91
2022/10/27 06:48:13;;;;;;;;;;;;;;;;;;4958155;28;19980;-89
2022/10/27 06:50:39;;;;;;;;;;;;;;;;;;4942152;28;20330;-92
2022/10/27 06:53:04;;;;;;;;;;;;;;;;;;4953288;28;19961;-91
2022/10/27 06:55:30;;;;;;;;;;;;;;;;;;4975115;28;19922;-89
2022/10/27 06:57:55;;;;;;;;;;;;;;;;;;4926940;28;19952;-91
2022/10/27 07:00:21;;;;;;;;;;;;;;;;;;4976448;28;19914;-91
2022/10/27 07:02:46;;;;;;;;;;;;;;;;;;4943338;28;19917;-91
2022/10/27 07:05:12;;;;;;;;;;;;;;;;;;4943219;28;20386;-92
2022/10/27 07:07:37;;;;;;;;;;;;;;;;;;4974732;28;20298;-90
2022/10/27 07:10:03;;;;;;;;;;;;;;;;;;4926015;28;19914;-91
2022/10/27 07:12:28;;;;;;;;;;;;;;;;;;4923180;29;20382;-92
2022/10/27 07:14:54;;;;;;;;;;;;;;;;;;4907487;29;20289;-89
2022/10/27 07:17:19;;;;;;;;;;;;;;;;;;4956033;28;19919;-91
2022/10/27 07:19:44;;;;;;;;;;;;;;;;;;4908970;29;19914;-91
2022/10/27 07:22:10;;;;;;;;;;;;;;;;;;4956548;29;19938;-91
2022/10/27 07:24:35;;;;;;;;;;;;;;;;;;4940338;29;20271;-91
2022/10/27 07:27:01;;;;;;;;;;;;;;;;;;4970807;28;19921;-91
2022/10/27 07:29:26;;;;;;;;;;;;;;;;;;4961519;28;19921;-90
2022/10/27 07:31:52;;;;;;;;;;;;;;;;;;4946183;28;19941;-90
2022/10/27 07:34:17;;;;;;;;;;;;;;;;;;4942829;28;19958;-91
2022/10/27 07:36:43;;;;;;;;;;;;;;;;;;4929148;28;20049;-91
2022/10/27 07:39:08;;;;;;;;;;;;;;;;;;4929390;28;20392;-91
2022/10/27 07:41:33;;;;;;;;;;;;;;;;;;4926855;28;19914;-90
2022/10/27 07:43:59;;;;;;;;;;;;;;;;;;4951761;28;19918;-91
2022/10/27 07:46:24;;;;;;;;;;;;;;;;;;4956805;28;19969;-89
2022/10/27 07:48:50;;;;;;;;;;;;;;;;;;4940926;28;19918;-86
2022/10/27 07:51:15;;;;;;;;;;;;;;;;;;4973923;28;20336;-88
2022/10/27 07:53:40;;;;;;;;;;;;;;;;;;4956855;28;19914;-86
2022/10/27 07:56:06;;;;;;;;;;;;;;;;;;4951918;28;19937;-89
2022/10/27 07:58:31;;;;;;;;;;;;;;;;;;4937923;29;19944;-89
2022/10/27 08:00:58;;;;;;;;;;;;;;;;;;4938358;29;19937;-89
2022/10/27 08:03:24;;;;;;;;;;;;;;;;;;4938308;29;20382;-89
2022/10/27 08:05:50;;;;;;;;;;;;;;;;;;4938403;29;20457;-88
2022/10/27 08:08:15;;;;;;;;;;;;;;;;;;4954195;29;20004;-88
2022/10/27 08:10:41;;;;;;;;;;;;;;;;;;4938261;28;19919;-89
2022/10/27 08:13:06;;;;;;;;;;;;;;;;;;4940501;29;19920;-88
2022/10/27 08:15:31;;;;;;;;;;;;;;;;;;4922437;29;19965;-89
2022/10/27 08:17:58;;;;;;;;;;;;;;;;;;4937968;29;19922;-90
2022/10/27 08:20:24;;;;;;;;;;;;;;;;;;4924092;29;19915;-89
2022/10/27 08:22:49;;;;;;;;;;;;;;;;;;4959419;28;20009;-88
2022/10/27 08:25:14;;;;;;;;;;;;;;;;;;4910314;29;20013;-90
2022/10/27 08:27:40;;;;;;;;;;;;;;;;;;4926338;28;19970;-88
2022/10/27 08:30:07;;;;;;;;;;;;;;;;;;4945300;28;19922;-89
2022/10/27 08:32:33;;;;;;;;;;;;;;;;;;4936319;29;19914;-88
2022/10/27 08:34:58;;;;;;;;;;;;;;;;;;4935858;29;19933;-88
2022/10/27 08:37:24;;;;;;;;;;;;;;;;;;4950863;28;19929;-90
2022/10/27 08:39:49;;;;;;;;;;;;;;;;;;4945048;28;19918;-88
2022/10/27 08:42:15;;;;;;;;;;;;;;;;;;4962872;28;20262;-85
2022/10/27 08:44:40;;;;;;;;;;;;;;;;;;4971147;28;19914;-87
2022/10/27 08:47:05;;;;;;;;;;;;;;;;;;4933377;28;20270;-88
2022/10/27 08:49:31;;;;;;;;;;;;;;;;;;4928418;28;19937;-89
2022/10/27 08:51:56;;;;;;;;;;;;;;;;;;4955300;28;19915;-87
2022/10/27 08:54:21;;;;;;;;;;;;;;;;;;4940077;28;19914;-86
2022/10/27 08:56:47;;;;;;;;;;;;;;;;;;4947769;28;19929;-89
2022/10/27 08:59:12;;;;;;;;;;;;;;;;;;4957879;28;20407;-89
2022/10/27 09:01:38;;;;;;;;;;;;;;;;;;4957819;28;20021;-87
2022/10/27 09:04:03;;;;;;;;;;;;;;;;;;4946160;28;20381;-88
2022/10/27 09:06:28;;;;;;;;;;;;;;;;;;4950699;29;20013;-88
2022/10/27 09:08:54;;;;;;;;;;;;;;;;;;4924734;29;19915;-88
2022/10/27 09:11:19;;;;;;;;;;;;;;;;;;4935847;28;20366;-89
2022/10/27 09:13:45;;;;;;;;;;;;;;;;;;4955810;29;19921;-90
2022/10/27 09:16:10;;;;;;;;;;;;;;;;;;4946839;28;20293;-88
2022/10/27 09:18:35;;;;;;;;;;;;;;;;;;4949194;29;19918;-89
2022/10/27 09:21:01;;;;;;;;;;;;;;;;;;4953803;28;19914;-89
2022/10/27 09:23:26;;;;;;;;;;;;;;;;;;4959830;28;19914;-88
2022/10/27 09:25:51;;;;;;;;;;;;;;;;;;4958081;28;19915;-89
2022/10/27 09:28:17;;;;;;;;;;;;;;;;;;4968850;28;20357;-88
2022/10/27 09:30:42;;;;;;;;;;;;;;;;;;4934882;28;20460;-88
2022/10/27 09:33:08;;;;;;;;;;;;;;;;;;4959051;28;19914;-86
2022/10/27 09:35:33;;;;;;;;;;;;;;;;;;4951471;28;19918;-88
2022/10/27 09:37:59;;;;;;;;;;;;;;;;;;4980994;28;19919;-87
2022/10/27 09:40:27;;;;;;;;;;;;;;;;;;4966187;28;19937;-88
2022/10/27 09:42:53;;;;;;;;;;;;;;;;;;4952900;28;19980;-87
2022/10/27 09:45:18;;;;;;;;;;;;;;;;;;4937532;28;19946;-87
2022/10/27 09:47:44;;;;;;;;;;;;;;;;;;4940350;28;20041;-86
2022/10/27 09:50:09;;;;;;;;;;;;;;;;;;4957899;28;20397;-80
2022/10/27 09:52:34;;;;;;;;;;;;;;;;;;4968798;28;20352;-80
2022/10/27 09:55:00;;;;;;;;;;;;;;;;;;4943804;28;19961;-78
2022/10/27 09:57:26;;;;;;;;;;;;;;;;;;4953642;28;19957;-81
2022/10/27 09:59:52;;;;;;;;;;;;;;;;;;4950682;28;20556;-80
2022/10/27 10:02:17;;;;;;;;;;;;;;;;;;4947144;29;19924;-80
2022/10/27 10:04:45;;;;;;;;;;;;;;;;;;4950200;29;19918;-79
2022/10/27 10:07:11;;;;;;;;;;;;;;;;;;4931251;29;20011;-80
2022/10/27 10:09:38;;;;;;;;;;;;;;;;;;4967506;28;20357;-79
2022/10/27 10:12:03;;;;;;;;;;;;;;;;;;4947642;28;19915;-82
2022/10/27 10:14:28;;;;;;;;;;;;;;;;;;4929833;29;20481;-81
2022/10/27 10:16:56;;;;;;;;;;;;;;;;;;4946410;29;19919;-82
2022/10/27 10:19:21;;;;;;;;;;;;;;;;;;4965526;28;19918;-81
2022/10/27 10:21:47;;;;;;;;;;;;;;;;;;4965753;28;19965;-82
2022/10/27 10:24:12;;;;;;;;;;;;;;;;;;4941178;29;19914;-83
2022/10/27 10:26:38;;;;;;;;;;;;;;;;;;4909289;29;20327;-79
2022/10/27 10:29:03;;;;;;;;;;;;;;;;;;4957649;28;19915;-80
2022/10/27 10:31:28;;;;;;;;;;;;;;;;;;4958873;28;19921;-80
2022/10/27 10:33:54;;;;;;;;;;;;;;;;;;4957672;28;20409;-80
2022/10/27 10:36:19;;;;;;;;;;;;;;;;;;4940462;29;20313;-80
2022/10/27 10:38:45;;;;;;;;;;;;;;;;;;4940402;29;20006;-80
2022/10/27 10:41:10;;;;;;;;;;;;;;;;;;4957550;28;20421;-81
2022/10/27 10:43:36;;;;;;;;;;;;;;;;;;4958864;28;19922;-79
2022/10/27 10:46:01;;;;;;;;;;;;;;;;;;4962256;28;19962;-80
2022/10/27 10:48:26;;;;;;;;;;;;;;;;;;4967109;28;20035;-84
2022/10/27 10:50:52;;;;;;;;;;;;;;;;;;4961840;28;20297;-83
2022/10/27 10:53:17;;;;;;;;;;;;;;;;;;4967538;28;19914;-82
2022/10/27 10:55:43;;;;;;;;;;;;;;;;;;4967870;28;19921;-80
2022/10/27 10:58:08;;;;;;;;;;;;;;;;;;4965761;28;20013;-80
2022/10/27 11:00:35;;;;;;;;;;;;;;;;;;4965990;28;20009;-81
2022/10/27 11:03:00;;;;;;;;;;;;;;;;;;4965542;28;19922;-80
2022/10/27 11:05:25;;;;;;;;;;;;;;;;;;4953601;28;19921;-80
2022/10/27 11:07:51;;;;;;;;;;;;;;;;;;4937304;28;19922;-79
2022/10/27 11:10:17;;;;;;;;;;;;;;;;;;4971334;28;20404;-79
2022/10/27 11:12:42;;;;;;;;;;;;;;;;;;4970452;28;19925;-80
2022/10/27 11:15:07;;;;;;;;;;;;;;;;;;4970220;28;20297;-81
2022/10/27 11:17:33;;;;;;;;;;;;;;;;;;4959652;28;20004;-88
2022/10/27 11:19:58;;;;;;;;;;;;;;;;;;4956863;28;19914;-86
2022/10/27 11:22:24;;;;;;;;;;;;;;;;;;4907390;29;19914;-80
2022/10/27 11:24:50;;;;;;;;;;;;;;;;;;4956051;28;19918;-79
2022/10/27 11:27:15;;;;;;;;;;;;;;;;;;4923064;29;20437;-79
2022/10/27 11:29:41;;;;;;;;;;;;;;;;;;4938476;28;19925;-80
2022/10/27 11:32:22;;;;;;;;;;;;;;;;;;;;;
2022/10/27 11:34:50;;;;;;;;;;;;;;;;;;4953222;28;19919;-79
2022/10/27 11:37:15;;;;;;;;;;;;;;;;;;4955709;28;19920;-81
2022/10/27 11:39:40;;;;;;;;;;;;;;;;;;4947242;28;19918;-85
2022/10/27 11:42:06;;;;;;;;;;;;;;;;;;4932176;29;20492;-83
2022/10/27 11:44:31;;;;;;;;;;;;;;;;;;4947962;29;19914;-86
2022/10/27 11:46:57;;;;;;;;;;;;;;;;;;4924586;28;19922;-84
2022/10/27 11:49:22;;;;;;;;;;;;;;;;;;4946152;28;19946;-83
2022/10/27 11:51:47;;;;;;;;;;;;;;;;;;4957587;28;20322;-84
2022/10/27 11:54:13;;;;;;;;;;;;;;;;;;4967832;28;19922;-84
2022/10/27 11:56:38;;;;;;;;;;;;;;;;;;4939214;29;19918;-84
2022/10/27 11:59:03;;;;;;;;;;;;;;;;;;4955883;28;19914;-84
2022/10/27 12:01:30;;;;;;;;;;;;;;;;;;4939862;28;19930;-84
2022/10/27 12:03:58;;;;;;;;;;;;;;;;;;4938859;28;19944;-85
2022/10/27 12:06:23;;;;;;;;;;;;;;;;;;4955728;28;19918;-85
2022/10/27 12:08:48;;;;;;;;;;;;;;;;;;4955026;28;19921;-85
2022/10/27 12:11:14;;;;;;;;;;;;;;;;;;4938383;29;20480;-86
2022/10/27 12:13:39;;;;;;;;;;;;;;;;;;4956192;28;19928;-89
2022/10/27 12:16:05;;;;;;;;;;;;;;;;;;4951114;28;20045;-86
2022/10/27 12:18:30;;;;;;;;;;;;;;;;;;4973024;28;19918;-88
2022/10/27 12:20:55;;;;;;;;;;;;;;;;;;4956216;28;19921;-85
2022/10/27 12:23:21;;;;;;;;;;;;;;;;;;4958851;28;20342;-86
2022/10/27 12:25:46;;;;;;;;;;;;;;;;;;4952293;28;20290;-86
2022/10/27 12:28:12;;;;;;;;;;;;;;;;;;4953797;28;19962;-85
2022/10/27 12:30:37;;;;;;;;;;;;;;;;;;4961059;28;19918;-86
2022/10/27 12:33:02;;;;;;;;;;;;;;;;;;4961095;28;19963;-83
2022/10/27 12:35:28;;;;;;;;;;;;;;;;;;4968911;28;19925;-86
2022/10/27 12:37:53;;;;;;;;;;;;;;;;;;4956673;28;20358;-85
2022/10/27 12:40:20;;;;;;;;;;;;;;;;;;4934114;29;19914;-85
2022/10/27 12:42:46;;;;;;;;;;;;;;;;;;4965333;28;19914;-85
2022/10/27 12:45:11;;;;;;;;;;;;;;;;;;4972859;28;20006;-85
2022/10/27 12:47:37;;;;;;;;;;;;;;;;;;4977314;28;19914;-86
2022/10/27 12:50:02;;;;;;;;;;;;;;;;;;4941161;28;19914;-85
2022/10/27 12:52:28;;;;;;;;;;;;;;;;;;4970317;28;19914;-85
2022/10/27 12:54:53;;;;;;;;;;;;;;;;;;4972929;28;19960;-85
2022/10/27 12:57:19;;;;;;;;;;;;;;;;;;4966509;28;19925;-86
2022/10/27 12:59:44;;;;;;;;;;;;;;;;;;4948178;28;19978;-85
2022/10/27 13:02:09;;;;;;;;;;;;;;;;;;4952730;29;19925;-85
2022/10/27 13:04:35;;;;;;;;;;;;;;;;;;4945251;28;20382;-86
2022/10/27 13:07:00;;;;;;;;;;;;;;;;;;4947874;28;19965;-84
2022/10/27 13:09:26;;;;;;;;;;;;;;;;;;4955641;28;19914;-86
2022/10/27 13:11:51;;;;;;;;;;;;;;;;;;4961572;28;19918;-85
2022/10/27 13:14:16;;;;;;;;;;;;;;;;;;4938445;29;19919;-85
2022/10/27 13:16:42;;;;;;;;;;;;;;;;;;4949779;28;19919;-86
2022/10/27 13:19:07;;;;;;;;;;;;;;;;;;4965140;28;19918;-85
2022/10/27 13:21:32;;;;;;;;;;;;;;;;;;4956919;28;19976;-85
2022/10/27 13:23:58;;;;;;;;;;;;;;;;;;4960680;28;19914;-86
2022/10/27 13:26:23;;;;;;;;;;;;;;;;;;4970867;28;19926;-84
2022/10/27 13:28:49;;;;;;;;;;;;;;;;;;4950511;28;20179;-86
2022/10/27 13:31:14;;;;;;;;;;;;;;;;;;4946946;28;20342;-84
2022/10/27 13:33:39;;;;;;;;;;;;;;;;;;4940817;28;19924;-86
2022/10/27 13:36:05;;;;;;;;;;;;;;;;;;4944693;28;19918;-85
2022/10/27 13:38:30;;;;;;;;;;;;;;;;;;4953683;28;19915;-84
2022/10/27 13:40:56;;;;;;;;;;;;;;;;;;4951051;28;19921;-86
2022/10/27 13:43:21;;;;;;;;;;;;;;;;;;4947122;29;19998;-85
2022/10/27 13:45:47;;;;;;;;;;;;;;;;;;4976055;28;19914;-85
2022/10/27 13:48:14;;;;;;;;;;;;;;;;;;4966292;28;19974;-85
2022/10/27 13:50:39;;;;;;;;;;;;;;;;;;4936537;29;19925;-86
2022/10/27 13:53:05;;;;;;;;;;;;;;;;;;4969069;28;20008;-85
2022/10/27 13:55:30;;;;;;;;;;;;;;;;;;4976138;28;19977;-84
2022/10/27 13:57:56;;;;;;;;;;;;;;;;;;4955911;28;19993;-85
2022/10/27 14:00:21;;;;;;;;;;;;;;;;;;4929628;28;19972;-86
2022/10/27 14:02:46;;;;;;;;;;;;;;;;;;4967373;28;19918;-85
2022/10/27 14:05:12;;;;;;;;;;;;;;;;;;4973108;28;19914;-84
2022/10/27 14:07:37;;;;;;;;;;;;;;;;;;4967771;28;19938;-82
2022/10/27 14:10:03;;;;;;;;;;;;;;;;;;4980280;28;20013;-85
2022/10/27 14:12:31;;;;;;;;;;;;;;;;;;4973739;28;20017;-85
2022/10/27 14:14:56;;;;;;;;;;;;;;;;;;4989666;28;19915;-84
2022/10/27 14:17:22;;;;;;;;;;;;;;;;;;4973361;28;19942;-84
2022/10/27 14:19:47;;;;;;;;;;;;;;;;;;4961868;28;19960;-85
2022/10/27 14:22:12;;;;;;;;;;;;;;;;;;4945256;28;19978;-86
2022/10/27 14:24:38;;;;;;;;;;;;;;;;;;4949511;28;19922;-86
2022/10/27 14:27:03;;;;;;;;;;;;;;;;;;4967864;28;19989;-86
2022/10/27 14:29:28;;;;;;;;;;;;;;;;;;4942608;29;19921;-86
2022/10/27 14:31:54;;;;;;;;;;;;;;;;;;4954833;28;19914;-85
2022/10/27 14:34:19;;;;;;;;;;;;;;;;;;4928375;28;20016;-86
2022/10/27 14:36:45;;;;;;;;;;;;;;;;;;4965901;28;20360;-86
2022/10/27 14:39:10;;;;;;;;;;;;;;;;;;4935693;28;19921;-86
2022/10/27 14:41:35;;;;;;;;;;;;;;;;;;4960746;28;20381;-85
2022/10/27 14:44:01;;;;;;;;;;;;;;;;;;4959550;28;19922;-86
2022/10/27 14:46:27;;;;;;;;;;;;;;;;;;4953813;28;20294;-86
2022/10/27 14:48:53;;;;;;;;;;;;;;;;;;4971353;28;19918;-86
2022/10/27 14:51:18;;;;;;;;;;;;;;;;;;4951184;28;19937;-85
2022/10/27 14:53:43;;;;;;;;;;;;;;;;;;4946486;29;19915;-86
2022/10/27 14:56:09;;;;;;;;;;;;;;;;;;4962236;29;20386;-85
2022/10/27 14:58:34;;;;;;;;;;;;;;;;;;4951821;28;19914;-85
2022/10/27 15:00:59;;;;;;;;;;;;;;;;;;4952246;28;20013;-86
2022/10/27 15:03:25;;;;;;;;;;;;;;;;;;4954798;28;19914;-86
2022/10/27 15:05:50;;;;;;;;;;;;;;;;;;4955820;28;19914;-85
2022/10/27 15:08:19;;;;;;;;;;;;;;;;;;4943948;28;19922;-85
2022/10/27 15:10:46;;;;;;;;;;;;;;;;;;4966469;28;19921;-85
2022/10/27 15:13:11;;;;;;;;;;;;;;;;;;4952917;28;19969;-86
2022/10/27 15:15:37;;;;;;;;;;;;;;;;;;4927436;28;20047;-86
2022/10/27 15:18:02;;;;;;;;;;;;;;;;;;4954837;28;19918;-85
2022/10/27 15:20:28;;;;;;;;;;;;;;;;;;4913825;28;19921;-86
2022/10/27 15:22:53;;;;;;;;;;;;;;;;;;4963063;28;19961;-85
2022/10/27 15:25:21;;;;;;;;;;;;;;;;;;4951723;28;19914;-87
2022/10/27 15:27:46;;;;;;;;;;;;;;;;;;4941460;28;19915;-86
2022/10/27 15:30:12;;;;;;;;;;;;;;;;;;4952154;28;19914;-87
2022/10/27 15:32:38;;;;;;;;;;;;;;;;;;4914389;28;19937;-85
2022/10/27 15:35:03;;;;;;;;;;;;;;;;;;4961528;28;19921;-86
2022/10/27 15:37:29;;;;;;;;;;;;;;;;;;4953352;28;20333;-85
2022/10/27 15:39:54;;;;;;;;;;;;;;;;;;4941338;28;20410;-86
2022/10/27 15:42:20;;;;;;;;;;;;;;;;;;4968399;28;19969;-85
2022/10/27 15:44:45;;;;;;;;;;;;;;;;;;4947518;28;20342;-85
2022/10/27 15:47:11;;;;;;;;;;;;;;;;;;4930255;29;19934;-85
2022/10/27 15:49:36;;;;;;;;;;;;;;;;;;4939383;28;19918;-85
2022/10/27 15:52:02;;;;;;;;;;;;;;;;;;4975030;28;20403;-85
2022/10/27 15:54:28;;;;;;;;;;;;;;;;;;4960725;28;19968;-85
2022/10/27 15:56:53;;;;;;;;;;;;;;;;;;4968144;28;19924;-86
2022/10/27 15:59:21;;;;;;;;;;;;;;;;;;4952323;28;19976;-84
2022/10/27 16:01:46;;;;;;;;;;;;;;;;;;4959368;28;19915;-85
2022/10/27 16:04:11;;;;;;;;;;;;;;;;;;4953024;29;19941;-85
2022/10/27 16:06:37;;;;;;;;;;;;;;;;;;4946011;28;20021;-87
2022/10/27 16:09:02;;;;;;;;;;;;;;;;;;4945212;28;19938;-85
2022/10/27 16:11:28;;;;;;;;;;;;;;;;;;4952789;28;19918;-84
2022/10/27 16:13:53;;;;;;;;;;;;;;;;;;4939608;28;20302;-85
2022/10/27 16:16:18;;;;;;;;;;;;;;;;;;4950235;29;19925;-85
2022/10/27 16:18:44;;;;;;;;;;;;;;;;;;4921535;29;20270;-84
2022/10/27 16:21:09;;;;;;;;;;;;;;;;;;4949757;28;20305;-85
2022/10/27 16:23:35;;;;;;;;;;;;;;;;;;4963235;28;19962;-85
2022/10/27 16:26:00;;;;;;;;;;;;;;;;;;4960678;28;19922;-84
2022/10/27 16:28:25;;;;;;;;;;;;;;;;;;4952979;28;19922;-84
2022/10/27 16:30:51;;;;;;;;;;;;;;;;;;4972371;28;20002;-84
2022/10/27 16:33:16;;;;;;;;;;;;;;;;;;4975193;28;19914;-85